PWSweather.com
Personal Weather Stations
Station Observations
WD4JKH
Forsyth, GA 31029

Forsyth, GA 31029

Lat: 33.033225, Lon: -83.927995

Elevation: 709

Station Type: Davis Vantage VUE

High Low Average
Temperature 89.8°F32.1°C 63.7°F17.6°C 77.6°F25.3°C
Dew Point 64.7°F18.2°C 54.1°F12.3°C 59.3°F15.2°C
Winds 4.8 mph 7.7 kmh Calm Calm 1.0 mph SW1.6 kmh SW
Wind Gusts 14.0 mph22.5 kmh -- 4.0 mph6.4 kmh
Humidity 88% 34% 56%
Pressure 30.13 in1020.3 mb 29.95 in1014.2 mb -
Precipitation 0.00 in0.0 mm - -
Hour Temp Dew Point Humidity Winds Wind Gusts Pressure Precip Precip Rate Daily Precip Total
12:00 AM 71.8°F22.1°C 55.4°F13.0°C 56% Calm Calm 4.0 mph6.4 kmh 30.10 in1019.3 mb 0.00 in0.0 mm 0.00 in0.0 mm 0.00 in0.0 mm
12:05 AM 70.8°F21.6°C 56.9°F13.8°C 61% 1.1 mph SW1.8 kmh SW 2.0 mph3.2 kmh 30.10 in1019.3 mb 0.00 in0.0 mm 0.00 in0.0 mm 0.00 in0.0 mm
12:10 AM 69.7°F20.9°C 55.8°F13.2°C 61% 1.0 mph W1.6 kmh W 3.0 mph4.8 kmh 30.10 in1019.3 mb 0.00 in0.0 mm 0.00 in0.0 mm 0.00 in0.0 mm
12:15 AM 71.0°F21.7°C 55.0°F12.8°C 57% 1.0 mph W1.6 kmh W 3.0 mph4.8 kmh 30.10 in1019.3 mb 0.00 in0.0 mm 0.00 in0.0 mm 0.00 in0.0 mm
12:20 AM 71.0°F21.7°C 55.2°F12.9°C 57% Calm Calm 3.0 mph4.8 kmh 30.10 in1019.3 mb 0.00 in0.0 mm 0.00 in0.0 mm 0.00 in0.0 mm
12:25 AM 70.6°F21.4°C 55.7°F13.2°C 59% Calm Calm 3.0 mph4.8 kmh 30.10 in1019.3 mb 0.00 in0.0 mm 0.00 in0.0 mm 0.00 in0.0 mm
12:30 AM 70.6°F21.4°C 56.0°F13.3°C 60% Calm Calm 1.0 mph1.6 kmh 30.10 in1019.3 mb 0.00 in0.0 mm 0.00 in0.0 mm 0.00 in0.0 mm
12:35 AM 69.9°F21.1°C 55.6°F13.1°C 60% Calm Calm 1.0 mph1.6 kmh 30.10 in1019.3 mb 0.00 in0.0 mm 0.00 in0.0 mm 0.00 in0.0 mm
12:40 AM 70.3°F21.3°C 55.0°F12.8°C 58% Calm Calm 1.0 mph1.6 kmh 30.09 in1019.0 mb 0.00 in0.0 mm 0.00 in0.0 mm 0.00 in0.0 mm
12:45 AM 70.9°F21.6°C 55.4°F13.0°C 58% Calm Calm 1.0 mph1.6 kmh 30.09 in1019.0 mb 0.00 in0.0 mm 0.00 in0.0 mm 0.00 in0.0 mm
12:51 AM 71.1°F21.7°C 55.3°F12.9°C 57% Calm Calm -- 30.09 in1019.0 mb 0.00 in0.0 mm 0.00 in0.0 mm 0.00 in0.0 mm
12:56 AM 71.1°F21.7°C 54.8°F12.7°C 56% Calm Calm -- 30.09 in1019.0 mb 0.00 in0.0 mm 0.00 in0.0 mm 0.00 in0.0 mm
01:01 AM 72.0°F22.2°C 54.6°F12.6°C 54% Calm Calm -- 30.09 in1019.0 mb 0.00 in0.0 mm 0.00 in0.0 mm 0.00 in0.0 mm
01:05 AM 73.4°F23.0°C 54.3°F12.4°C 51% Calm Calm -- 30.09 in1019.0 mb 0.00 in0.0 mm 0.00 in0.0 mm 0.00 in0.0 mm
01:10 AM 73.8°F23.2°C 54.6°F12.6°C 51% 1.0 mph W1.6 kmh W 1.0 mph1.6 kmh 30.09 in1019.0 mb 0.00 in0.0 mm 0.00 in0.0 mm 0.00 in0.0 mm
01:15 AM 74.0°F23.3°C 54.3°F12.4°C 50% 1.0 mph W1.6 kmh W 1.0 mph1.6 kmh 30.09 in1019.0 mb 0.00 in0.0 mm 0.00 in0.0 mm 0.00 in0.0 mm
01:21 AM 74.2°F23.4°C 54.4°F12.4°C 50% Calm Calm 1.0 mph1.6 kmh 30.09 in1019.0 mb 0.00 in0.0 mm 0.00 in0.0 mm 0.00 in0.0 mm
01:26 AM 74.0°F23.3°C 54.3°F12.4°C 50% 1.0 mph W1.6 kmh W 1.0 mph1.6 kmh 30.09 in1019.0 mb 0.00 in0.0 mm 0.00 in0.0 mm 0.00 in0.0 mm
01:31 AM 74.4°F23.6°C 54.1°F12.3°C 49% 1.0 mph W1.6 kmh W 2.0 mph3.2 kmh 30.09 in1019.0 mb 0.00 in0.0 mm 0.00 in0.0 mm 0.00 in0.0 mm
01:35 AM 74.2°F23.4°C 54.4°F12.4°C 50% Calm Calm 2.0 mph3.2 kmh 30.09 in1019.0 mb 0.00 in0.0 mm 0.00 in0.0 mm 0.00 in0.0 mm
01:41 AM 72.9°F22.7°C 55.8°F13.2°C 55% 1.0 mph W1.6 kmh W 2.0 mph3.2 kmh 30.09 in1019.0 mb 0.00 in0.0 mm 0.00 in0.0 mm 0.00 in0.0 mm
01:46 AM 69.6°F20.9°C 56.2°F13.4°C 62% 2.2 mph E3.5 kmh E 4.0 mph6.4 kmh 30.09 in1019.0 mb 0.00 in0.0 mm 0.00 in0.0 mm 0.00 in0.0 mm
01:51 AM 67.7°F19.8°C 56.1°F13.4°C 66% 2.6 mph E4.2 kmh E 4.0 mph6.4 kmh 30.09 in1019.0 mb 0.00 in0.0 mm 0.00 in0.0 mm 0.00 in0.0 mm
01:56 AM 66.5°F19.2°C 56.2°F13.4°C 69% 1.7 mph SE2.7 kmh SE 4.0 mph6.4 kmh 30.09 in1019.0 mb 0.00 in0.0 mm 0.00 in0.0 mm 0.00 in0.0 mm
02:01 AM 65.9°F18.8°C 56.0°F13.3°C 70% 1.8 mph SE2.9 kmh SE 4.0 mph6.4 kmh 30.09 in1019.0 mb 0.00 in0.0 mm 0.00 in0.0 mm 0.00 in0.0 mm
02:06 AM 65.8°F18.8°C 55.7°F13.2°C 70% 1.2 mph SE1.9 kmh SE 4.0 mph6.4 kmh 30.09 in1019.0 mb 0.00 in0.0 mm 0.00 in0.0 mm 0.00 in0.0 mm
02:11 AM 66.5°F19.2°C 56.6°F13.7°C 70% 1.2 mph E1.9 kmh E 4.0 mph6.4 kmh 30.09 in1019.0 mb 0.00 in0.0 mm 0.00 in0.0 mm 0.00 in0.0 mm
02:16 AM 66.9°F19.4°C 56.6°F13.7°C 69% 1.4 mph ESE2.3 kmh ESE 3.0 mph4.8 kmh 30.09 in1019.0 mb 0.00 in0.0 mm 0.00 in0.0 mm 0.00 in0.0 mm
02:21 AM 66.6°F19.2°C 56.3°F13.5°C 69% 1.0 mph ESE1.6 kmh ESE 2.0 mph3.2 kmh 30.09 in1019.0 mb 0.00 in0.0 mm 0.00 in0.0 mm 0.00 in0.0 mm
02:26 AM 66.2°F19.0°C 56.3°F13.5°C 70% 1.0 mph ESE1.6 kmh ESE 2.0 mph3.2 kmh 30.09 in1019.0 mb 0.00 in0.0 mm 0.00 in0.0 mm 0.00 in0.0 mm
02:31 AM 66.3°F19.1°C 57.2°F14.0°C 72% Calm Calm 2.0 mph3.2 kmh 30.09 in1019.0 mb 0.00 in0.0 mm 0.00 in0.0 mm 0.00 in0.0 mm
02:36 AM 66.1°F18.9°C 57.0°F13.9°C 72% Calm Calm 2.0 mph3.2 kmh 30.09 in1019.0 mb 0.00 in0.0 mm 0.00 in0.0 mm 0.00 in0.0 mm
02:41 AM 65.9°F18.8°C 57.1°F13.9°C 73% 1.0 mph ESE1.6 kmh ESE 1.0 mph1.6 kmh 30.09 in1019.0 mb 0.00 in0.0 mm 0.00 in0.0 mm 0.00 in0.0 mm
02:46 AM 65.6°F18.7°C 56.8°F13.8°C 73% 1.0 mph ESE1.6 kmh ESE 1.0 mph1.6 kmh 30.09 in1019.0 mb 0.00 in0.0 mm 0.00 in0.0 mm 0.00 in0.0 mm
02:51 AM 65.3°F18.5°C 56.9°F13.8°C 74% Calm Calm 1.0 mph1.6 kmh 30.09 in1019.0 mb 0.00 in0.0 mm 0.00 in0.0 mm 0.00 in0.0 mm
02:56 AM 65.3°F18.5°C 57.3°F14.1°C 75% Calm Calm 1.0 mph1.6 kmh 30.09 in1019.0 mb 0.00 in0.0 mm 0.00 in0.0 mm 0.00 in0.0 mm
03:01 AM 65.2°F18.4°C 57.6°F14.2°C 76% 1.0 mph SW1.6 kmh SW 1.0 mph1.6 kmh 30.09 in1019.0 mb 0.00 in0.0 mm 0.00 in0.0 mm 0.00 in0.0 mm
03:06 AM 65.0°F18.3°C 57.4°F14.1°C 76% 1.0 mph SW1.6 kmh SW 1.0 mph1.6 kmh 30.09 in1019.0 mb 0.00 in0.0 mm 0.00 in0.0 mm 0.00 in0.0 mm
03:11 AM 65.1°F18.4°C 57.5°F14.2°C 76% Calm Calm 1.0 mph1.6 kmh 30.09 in1019.0 mb 0.00 in0.0 mm 0.00 in0.0 mm 0.00 in0.0 mm
03:16 AM 64.9°F18.3°C 57.3°F14.1°C 76% 1.0 mph SW1.6 kmh SW 1.0 mph1.6 kmh 30.09 in1019.0 mb 0.00 in0.0 mm 0.00 in0.0 mm 0.00 in0.0 mm
03:21 AM 64.8°F18.2°C 57.5°F14.2°C 77% 1.2 mph SW1.9 kmh SW 2.0 mph3.2 kmh 30.09 in1019.0 mb 0.00 in0.0 mm 0.00 in0.0 mm 0.00 in0.0 mm
03:26 AM 64.8°F18.2°C 57.5°F14.2°C 77% 1.0 mph SW1.6 kmh SW 3.0 mph4.8 kmh 30.09 in1019.0 mb 0.00 in0.0 mm 0.00 in0.0 mm 0.00 in0.0 mm
03:31 AM 64.8°F18.2°C 57.8°F14.3°C 78% 1.3 mph SW2.1 kmh SW 3.0 mph4.8 kmh 30.09 in1019.0 mb 0.00 in0.0 mm 0.00 in0.0 mm 0.00 in0.0 mm
03:36 AM 64.8°F18.2°C 57.8°F14.3°C 78% Calm Calm 3.0 mph4.8 kmh 30.09 in1019.0 mb 0.00 in0.0 mm 0.00 in0.0 mm 0.00 in0.0 mm
03:41 AM 65.1°F18.4°C 58.1°F14.5°C 78% 1.3 mph SW2.1 kmh SW 3.0 mph4.8 kmh 30.09 in1019.0 mb 0.00 in0.0 mm 0.00 in0.0 mm 0.00 in0.0 mm
03:46 AM 65.3°F18.5°C 58.3°F14.6°C 78% 1.0 mph SW1.6 kmh SW 2.0 mph3.2 kmh 30.09 in1019.0 mb 0.00 in0.0 mm 0.00 in0.0 mm 0.00 in0.0 mm
03:51 AM 65.2°F18.4°C 58.2°F14.6°C 78% 1.8 mph SW2.9 kmh SW 2.0 mph3.2 kmh 30.09 in1019.0 mb 0.00 in0.0 mm 0.00 in0.0 mm 0.00 in0.0 mm
03:56 AM 65.1°F18.4°C 58.1°F14.5°C 78% 1.4 mph SW2.3 kmh SW 2.0 mph3.2 kmh 30.09 in1019.0 mb 0.00 in0.0 mm 0.00 in0.0 mm 0.00 in0.0 mm
04:01 AM 65.0°F18.3°C 58.1°F14.5°C 78% Calm Calm 2.0 mph3.2 kmh 30.09 in1019.0 mb 0.00 in0.0 mm 0.00 in0.0 mm 0.00 in0.0 mm
04:06 AM 64.9°F18.3°C 58.3°F14.6°C 79% 1.0 mph SW1.6 kmh SW 2.0 mph3.2 kmh 30.09 in1019.0 mb 0.00 in0.0 mm 0.00 in0.0 mm 0.00 in0.0 mm
04:11 AM 64.7°F18.2°C 58.1°F14.5°C 79% Calm Calm 2.0 mph3.2 kmh 30.09 in1019.0 mb 0.00 in0.0 mm 0.00 in0.0 mm 0.00 in0.0 mm
04:16 AM 64.4°F18.0°C 58.2°F14.6°C 80% Calm Calm 1.0 mph1.6 kmh 30.09 in1019.0 mb 0.00 in0.0 mm 0.00 in0.0 mm 0.00 in0.0 mm
04:21 AM 64.2°F17.9°C 58.0°F14.4°C 80% Calm Calm 1.0 mph1.6 kmh 30.09 in1019.0 mb 0.00 in0.0 mm 0.00 in0.0 mm 0.00 in0.0 mm
04:26 AM 64.0°F17.8°C 58.1°F14.5°C 81% Calm Calm -- 30.08 in1018.6 mb 0.00 in0.0 mm 0.00 in0.0 mm 0.00 in0.0 mm
04:31 AM 63.9°F17.7°C 58.3°F14.6°C 82% 1.0 mph SW1.6 kmh SW 1.0 mph1.6 kmh 30.09 in1019.0 mb 0.00 in0.0 mm 0.00 in0.0 mm 0.00 in0.0 mm
04:36 AM 63.8°F17.7°C 58.2°F14.6°C 82% Calm Calm 1.0 mph1.6 kmh 30.08 in1018.6 mb 0.00 in0.0 mm 0.00 in0.0 mm 0.00 in0.0 mm
04:40 AM 63.7°F17.6°C 58.5°F14.7°C 83% 1.0 mph SW1.6 kmh SW 1.0 mph1.6 kmh 30.09 in1019.0 mb 0.00 in0.0 mm 0.00 in0.0 mm 0.00 in0.0 mm
04:45 AM 63.8°F17.7°C 58.9°F14.9°C 84% Calm Calm 1.0 mph1.6 kmh 30.09 in1019.0 mb 0.00 in0.0 mm 0.00 in0.0 mm 0.00 in0.0 mm
04:50 AM 63.8°F17.7°C 58.9°F14.9°C 84% 1.0 mph SW1.6 kmh SW 1.0 mph1.6 kmh 30.09 in1019.0 mb 0.00 in0.0 mm 0.00 in0.0 mm 0.00 in0.0 mm
04:55 AM 63.9°F17.7°C 59.0°F15.0°C 84% 1.0 mph SW1.6 kmh SW 1.0 mph1.6 kmh 30.09 in1019.0 mb 0.00 in0.0 mm 0.00 in0.0 mm 0.00 in0.0 mm
05:00 AM 63.9°F17.7°C 59.0°F15.0°C 84% Calm Calm 1.0 mph1.6 kmh 30.09 in1019.0 mb 0.00 in0.0 mm 0.00 in0.0 mm 0.00 in0.0 mm
05:05 AM 63.8°F17.7°C 59.2°F15.1°C 85% 1.0 mph SW1.6 kmh SW 1.0 mph1.6 kmh 30.09 in1019.0 mb 0.00 in0.0 mm 0.00 in0.0 mm 0.00 in0.0 mm
05:10 AM 63.7°F17.6°C 59.1°F15.1°C 85% 1.0 mph SW1.6 kmh SW 1.0 mph1.6 kmh 30.09 in1019.0 mb 0.00 in0.0 mm 0.00 in0.0 mm 0.00 in0.0 mm
05:15 AM 63.9°F17.7°C 59.6°F15.3°C 86% 1.4 mph SW2.3 kmh SW 2.0 mph3.2 kmh 30.09 in1019.0 mb 0.00 in0.0 mm 0.00 in0.0 mm 0.00 in0.0 mm
05:20 AM 63.9°F17.7°C 59.6°F15.3°C 86% Calm Calm 2.0 mph3.2 kmh 30.09 in1019.0 mb 0.00 in0.0 mm 0.00 in0.0 mm 0.00 in0.0 mm
05:25 AM 63.8°F17.7°C 59.5°F15.3°C 86% 1.0 mph SW1.6 kmh SW 2.0 mph3.2 kmh 30.10 in1019.3 mb 0.00 in0.0 mm 0.00 in0.0 mm 0.00 in0.0 mm
05:30 AM 63.9°F17.7°C 59.6°F15.3°C 86% 1.0 mph SW1.6 kmh SW 2.0 mph3.2 kmh 30.09 in1019.0 mb 0.00 in0.0 mm 0.00 in0.0 mm 0.00 in0.0 mm
05:35 AM 63.9°F17.7°C 59.6°F15.3°C 86% Calm Calm 1.0 mph1.6 kmh 30.09 in1019.0 mb 0.00 in0.0 mm 0.00 in0.0 mm 0.00 in0.0 mm
05:40 AM 63.9°F17.7°C 59.6°F15.3°C 86% Calm Calm 1.0 mph1.6 kmh 30.09 in1019.0 mb 0.00 in0.0 mm 0.00 in0.0 mm 0.00 in0.0 mm
05:45 AM 63.9°F17.7°C 59.6°F15.3°C 86% Calm Calm 1.0 mph1.6 kmh 30.09 in1019.0 mb 0.00 in0.0 mm 0.00 in0.0 mm 0.00 in0.0 mm
05:50 AM 63.9°F17.7°C 60.0°F15.6°C 87% Calm Calm 1.0 mph1.6 kmh 30.10 in1019.3 mb 0.00 in0.0 mm 0.00 in0.0 mm 0.00 in0.0 mm
05:55 AM 63.8°F17.7°C 59.9°F15.5°C 87% Calm Calm 1.0 mph1.6 kmh 30.10 in1019.3 mb 0.00 in0.0 mm 0.00 in0.0 mm 0.00 in0.0 mm
06:00 AM 63.9°F17.7°C 60.3°F15.7°C 88% 1.0 mph WSW1.6 kmh WSW 2.0 mph3.2 kmh 30.09 in1019.0 mb 0.00 in0.0 mm 0.00 in0.0 mm 0.00 in0.0 mm
06:05 AM 64.2°F17.9°C 60.2°F15.7°C 87% 1.1 mph WSW1.8 kmh WSW 2.0 mph3.2 kmh 30.10 in1019.3 mb 0.00 in0.0 mm 0.00 in0.0 mm 0.00 in0.0 mm
06:10 AM 64.2°F17.9°C 60.2°F15.7°C 87% 1.0 mph WSW1.6 kmh WSW 2.0 mph3.2 kmh 30.10 in1019.3 mb 0.00 in0.0 mm 0.00 in0.0 mm 0.00 in0.0 mm
06:15 AM 64.2°F17.9°C 60.2°F15.7°C 87% 1.1 mph SW1.8 kmh SW 3.0 mph4.8 kmh 30.10 in1019.3 mb 0.00 in0.0 mm 0.00 in0.0 mm 0.00 in0.0 mm
06:20 AM 64.3°F17.9°C 60.3°F15.7°C 87% 1.2 mph WSW1.9 kmh WSW 3.0 mph4.8 kmh 30.10 in1019.3 mb 0.00 in0.0 mm 0.00 in0.0 mm 0.00 in0.0 mm
06:25 AM 64.3°F17.9°C 60.3°F15.7°C 87% 1.0 mph WSW1.6 kmh WSW 3.0 mph4.8 kmh 30.10 in1019.3 mb 0.00 in0.0 mm 0.00 in0.0 mm 0.00 in0.0 mm
06:30 AM 64.3°F17.9°C 60.3°F15.7°C 87% 1.0 mph WSW1.6 kmh WSW 3.0 mph4.8 kmh 30.10 in1019.3 mb 0.00 in0.0 mm 0.00 in0.0 mm 0.00 in0.0 mm
06:35 AM 64.3°F17.9°C 60.3°F15.7°C 87% 1.3 mph WSW2.1 kmh WSW 3.0 mph4.8 kmh 30.10 in1019.3 mb 0.00 in0.0 mm 0.00 in0.0 mm 0.00 in0.0 mm
06:40 AM 64.3°F17.9°C 60.3°F15.7°C 87% 1.0 mph WSW1.6 kmh WSW 3.0 mph4.8 kmh 30.10 in1019.3 mb 0.00 in0.0 mm 0.00 in0.0 mm 0.00 in0.0 mm
06:45 AM 64.5°F18.1°C 60.5°F15.8°C 87% 1.0 mph WSW1.6 kmh WSW 3.0 mph4.8 kmh 30.10 in1019.3 mb 0.00 in0.0 mm 0.00 in0.0 mm 0.00 in0.0 mm
06:50 AM 64.8°F18.2°C 60.8°F16.0°C 87% 1.2 mph WSW1.9 kmh WSW 3.0 mph4.8 kmh 30.10 in1019.3 mb 0.00 in0.0 mm 0.00 in0.0 mm 0.00 in0.0 mm
06:55 AM 65.1°F18.4°C 61.1°F16.2°C 87% 1.4 mph SW2.3 kmh SW 2.0 mph3.2 kmh 30.10 in1019.3 mb 0.00 in0.0 mm 0.00 in0.0 mm 0.00 in0.0 mm
07:00 AM 65.4°F18.6°C 61.1°F16.2°C 86% Calm Calm 2.0 mph3.2 kmh 30.10 in1019.3 mb 0.00 in0.0 mm 0.00 in0.0 mm 0.00 in0.0 mm
07:05 AM 65.7°F18.7°C 61.4°F16.3°C 86% 1.3 mph WSW2.1 kmh WSW 2.0 mph3.2 kmh 30.10 in1019.3 mb 0.00 in0.0 mm 0.00 in0.0 mm 0.00 in0.0 mm
07:10 AM 65.9°F18.8°C 61.6°F16.4°C 86% 1.2 mph SW1.9 kmh SW 4.0 mph6.4 kmh 30.10 in1019.3 mb 0.00 in0.0 mm 0.00 in0.0 mm 0.00 in0.0 mm
07:15 AM 66.2°F19.0°C 61.9°F16.6°C 86% 1.0 mph SSW1.6 kmh SSW 4.0 mph6.4 kmh 30.10 in1019.3 mb 0.00 in0.0 mm 0.00 in0.0 mm 0.00 in0.0 mm
07:20 AM 66.6°F19.2°C 61.9°F16.6°C 85% 1.0 mph WSW1.6 kmh WSW 4.0 mph6.4 kmh 30.11 in1019.6 mb 0.00 in0.0 mm 0.00 in0.0 mm 0.00 in0.0 mm
07:25 AM 66.9°F19.4°C 62.3°F16.8°C 85% 1.4 mph SW2.3 kmh SW 4.0 mph6.4 kmh 30.11 in1019.6 mb 0.00 in0.0 mm 0.00 in0.0 mm 0.00 in0.0 mm
07:30 AM 67.1°F19.5°C 62.1°F16.7°C 84% 1.3 mph SW2.1 kmh SW 4.0 mph6.4 kmh 30.11 in1019.6 mb 0.00 in0.0 mm 0.00 in0.0 mm 0.00 in0.0 mm
07:35 AM 67.4°F19.7°C 62.1°F16.7°C 83% 1.6 mph WSW2.6 kmh WSW 4.0 mph6.4 kmh 30.11 in1019.6 mb 0.00 in0.0 mm 0.00 in0.0 mm 0.00 in0.0 mm
07:40 AM 67.8°F19.9°C 62.5°F16.9°C 83% 1.6 mph WSW2.6 kmh WSW 4.0 mph6.4 kmh 30.11 in1019.6 mb 0.00 in0.0 mm 0.00 in0.0 mm 0.00 in0.0 mm
07:45 AM 68.0°F20.0°C 62.4°F16.9°C 82% 1.4 mph WSW2.3 kmh WSW 4.0 mph6.4 kmh 30.11 in1019.6 mb 0.00 in0.0 mm 0.00 in0.0 mm 0.00 in0.0 mm
07:50 AM 68.4°F20.2°C 62.4°F16.9°C 81% 1.9 mph SW3.1 kmh SW 4.0 mph6.4 kmh 30.11 in1019.6 mb 0.00 in0.0 mm 0.00 in0.0 mm 0.00 in0.0 mm
07:55 AM 68.8°F20.4°C 62.8°F17.1°C 81% 1.6 mph SW2.6 kmh SW 4.0 mph6.4 kmh 30.11 in1019.6 mb 0.00 in0.0 mm 0.00 in0.0 mm 0.00 in0.0 mm
08:00 AM 69.2°F20.7°C 62.8°F17.1°C 80% 2.3 mph SW3.7 kmh SW 4.0 mph6.4 kmh 30.11 in1019.6 mb 0.00 in0.0 mm 0.00 in0.0 mm 0.00 in0.0 mm
08:05 AM 69.7°F20.9°C 63.0°F17.2°C 79% 1.9 mph SW3.1 kmh SW 4.0 mph6.4 kmh 30.11 in1019.6 mb 0.00 in0.0 mm 0.00 in0.0 mm 0.00 in0.0 mm
08:10 AM 70.1°F21.2°C 63.0°F17.2°C 78% 1.4 mph SW2.3 kmh SW 4.0 mph6.4 kmh 30.11 in1019.6 mb 0.00 in0.0 mm 0.00 in0.0 mm 0.00 in0.0 mm
08:15 AM 70.5°F21.4°C 63.1°F17.3°C 77% 1.5 mph SW2.4 kmh SW 4.0 mph6.4 kmh 30.11 in1019.6 mb 0.00 in0.0 mm 0.00 in0.0 mm 0.00 in0.0 mm
08:20 AM 70.7°F21.5°C 62.9°F17.2°C 76% 2.3 mph WSW3.7 kmh WSW 6.0 mph9.7 kmh 30.11 in1019.6 mb 0.00 in0.0 mm 0.00 in0.0 mm 0.00 in0.0 mm
08:25 AM 70.9°F21.6°C 63.1°F17.3°C 76% 1.6 mph WSW2.6 kmh WSW 6.0 mph9.7 kmh 30.11 in1019.6 mb 0.00 in0.0 mm 0.00 in0.0 mm 0.00 in0.0 mm
08:30 AM 71.1°F21.7°C 62.9°F17.2°C 75% 3.1 mph SW5.0 kmh SW 6.0 mph9.7 kmh 30.12 in1020.0 mb 0.00 in0.0 mm 0.00 in0.0 mm 0.00 in0.0 mm
08:35 AM 71.2°F21.8°C 63.0°F17.2°C 75% 1.0 mph W1.6 kmh W 7.0 mph11.3 kmh 30.12 in1020.0 mb 0.00 in0.0 mm 0.00 in0.0 mm 0.00 in0.0 mm
08:40 AM 71.9°F22.2°C 63.7°F17.6°C 75% 1.0 mph WSW1.6 kmh WSW 7.0 mph11.3 kmh 30.12 in1020.0 mb 0.00 in0.0 mm 0.00 in0.0 mm 0.00 in0.0 mm
08:45 AM 72.8°F22.7°C 63.2°F17.3°C 72% 2.9 mph SSW4.7 kmh SSW 7.0 mph11.3 kmh 30.12 in1020.0 mb 0.00 in0.0 mm 0.00 in0.0 mm 0.00 in0.0 mm
08:50 AM 73.2°F22.9°C 63.8°F17.7°C 72% 1.8 mph W2.9 kmh W 7.0 mph11.3 kmh 30.12 in1020.0 mb 0.00 in0.0 mm 0.00 in0.0 mm 0.00 in0.0 mm
08:55 AM 73.4°F23.0°C 63.6°F17.6°C 71% 2.7 mph W4.3 kmh W 6.0 mph9.7 kmh 30.12 in1020.0 mb 0.00 in0.0 mm 0.00 in0.0 mm 0.00 in0.0 mm
09:00 AM 73.5°F23.1°C 63.3°F17.4°C 70% 1.8 mph W2.9 kmh W 6.0 mph9.7 kmh 30.13 in1020.3 mb 0.00 in0.0 mm 0.00 in0.0 mm 0.00 in0.0 mm
09:05 AM 74.1°F23.4°C 64.3°F17.9°C 71% 1.1 mph W1.8 kmh W 6.0 mph9.7 kmh 30.13 in1020.3 mb 0.00 in0.0 mm 0.00 in0.0 mm 0.00 in0.0 mm
09:10 AM 74.8°F23.8°C 63.7°F17.6°C 68% 2.2 mph WNW3.5 kmh WNW 6.0 mph9.7 kmh 30.13 in1020.3 mb 0.00 in0.0 mm 0.00 in0.0 mm 0.00 in0.0 mm
09:15 AM 75.8°F24.3°C 64.7°F18.2°C 68% 1.0 mph E1.6 kmh E 4.0 mph6.4 kmh 30.13 in1020.3 mb 0.00 in0.0 mm 0.00 in0.0 mm 0.00 in0.0 mm
09:20 AM 76.5°F24.7°C 64.1°F17.8°C 65% 1.6 mph W2.6 kmh W 3.0 mph4.8 kmh 30.13 in1020.3 mb 0.00 in0.0 mm 0.00 in0.0 mm 0.00 in0.0 mm
09:25 AM 77.0°F25.0°C 64.1°F17.8°C 64% 1.3 mph W2.1 kmh W 3.0 mph4.8 kmh 30.13 in1020.3 mb 0.00 in0.0 mm 0.00 in0.0 mm 0.00 in0.0 mm
09:30 AM 77.6°F25.3°C 64.2°F17.9°C 63% 1.0 mph W1.6 kmh W 3.0 mph4.8 kmh 30.13 in1020.3 mb 0.00 in0.0 mm 0.00 in0.0 mm 0.00 in0.0 mm
09:35 AM 78.1°F25.6°C 63.8°F17.7°C 61% 1.2 mph NW1.9 kmh NW 3.0 mph4.8 kmh 30.12 in1020.0 mb 0.00 in0.0 mm 0.00 in0.0 mm 0.00 in0.0 mm
09:39 AM 78.1°F25.6°C 63.1°F17.3°C 60% 2.1 mph SW3.4 kmh SW 4.0 mph6.4 kmh 30.12 in1020.0 mb 0.00 in0.0 mm 0.00 in0.0 mm 0.00 in0.0 mm
09:44 AM 78.1°F25.6°C 63.1°F17.3°C 60% 1.9 mph NW3.1 kmh NW 4.0 mph6.4 kmh 30.12 in1020.0 mb 0.00 in0.0 mm 0.00 in0.0 mm 0.00 in0.0 mm
09:49 AM 78.5°F25.8°C 63.9°F17.7°C 61% 1.1 mph NE1.8 kmh NE 4.0 mph6.4 kmh 30.12 in1020.0 mb 0.00 in0.0 mm 0.00 in0.0 mm 0.00 in0.0 mm
09:54 AM 79.3°F26.3°C 64.0°F17.8°C 59% 1.4 mph WSW2.3 kmh WSW 4.0 mph6.4 kmh 30.12 in1020.0 mb 0.00 in0.0 mm 0.00 in0.0 mm 0.00 in0.0 mm
09:59 AM 79.0°F26.1°C 63.2°F17.3°C 58% 2.1 mph W3.4 kmh W 4.0 mph6.4 kmh 30.12 in1020.0 mb 0.00 in0.0 mm 0.00 in0.0 mm 0.00 in0.0 mm
10:04 AM 78.9°F26.1°C 63.1°F17.3°C 58% 2.1 mph WNW3.4 kmh WNW 5.0 mph8.0 kmh 30.12 in1020.0 mb 0.00 in0.0 mm 0.00 in0.0 mm 0.00 in0.0 mm
10:09 AM 79.7°F26.5°C 64.3°F17.9°C 59% 1.5 mph SSW2.4 kmh SSW 5.0 mph8.0 kmh 30.12 in1020.0 mb 0.00 in0.0 mm 0.00 in0.0 mm 0.00 in0.0 mm
10:14 AM 80.2°F26.8°C 64.3°F17.9°C 58% 1.1 mph ESE1.8 kmh ESE 5.0 mph8.0 kmh 30.11 in1019.6 mb 0.00 in0.0 mm 0.00 in0.0 mm 0.00 in0.0 mm
10:19 AM 80.7°F27.1°C 64.1°F17.8°C 57% 1.2 mph ENE1.9 kmh ENE 5.0 mph8.0 kmh 30.11 in1019.6 mb 0.00 in0.0 mm 0.00 in0.0 mm 0.00 in0.0 mm
10:24 AM 81.2°F27.3°C 64.5°F18.1°C 57% 1.0 mph S1.6 kmh S 3.0 mph4.8 kmh 30.11 in1019.6 mb 0.00 in0.0 mm 0.00 in0.0 mm 0.00 in0.0 mm
10:29 AM 81.6°F27.6°C 64.6°F18.1°C 56% 1.3 mph SW2.1 kmh SW 3.0 mph4.8 kmh 30.11 in1019.6 mb 0.00 in0.0 mm 0.00 in0.0 mm 0.00 in0.0 mm
10:34 AM 81.6°F27.6°C 64.6°F18.1°C 56% 1.3 mph WSW2.1 kmh WSW 4.0 mph6.4 kmh 30.11 in1019.6 mb 0.00 in0.0 mm 0.00 in0.0 mm 0.00 in0.0 mm
10:39 AM 82.2°F27.9°C 64.6°F18.1°C 55% 1.1 mph NE1.8 kmh NE 4.0 mph6.4 kmh 30.11 in1019.6 mb 0.00 in0.0 mm 0.00 in0.0 mm 0.00 in0.0 mm
10:44 AM 82.5°F28.1°C 64.4°F18.0°C 54% 1.2 mph W1.9 kmh W 4.0 mph6.4 kmh 30.11 in1019.6 mb 0.00 in0.0 mm 0.00 in0.0 mm 0.00 in0.0 mm
10:49 AM 82.5°F28.1°C 63.8°F17.7°C 53% 2.0 mph N3.2 kmh N 6.0 mph9.7 kmh 30.11 in1019.6 mb 0.00 in0.0 mm 0.00 in0.0 mm 0.00 in0.0 mm
10:54 AM 82.5°F28.1°C 63.8°F17.7°C 53% 2.4 mph WNW3.9 kmh WNW 6.0 mph9.7 kmh 30.10 in1019.3 mb 0.00 in0.0 mm 0.00 in0.0 mm 0.00 in0.0 mm
10:59 AM 82.6°F28.1°C 63.9°F17.7°C 53% 1.1 mph NNW1.8 kmh NNW 6.0 mph9.7 kmh 30.10 in1019.3 mb 0.00 in0.0 mm 0.00 in0.0 mm 0.00 in0.0 mm
11:04 AM 82.6°F28.1°C 63.7°F17.6°C 53% 2.1 mph WSW3.4 kmh WSW 7.0 mph11.3 kmh 30.10 in1019.3 mb 0.00 in0.0 mm 0.00 in0.0 mm 0.00 in0.0 mm
11:09 AM 83.1°F28.4°C 63.8°F17.7°C 52% 2.6 mph SW4.2 kmh SW 7.0 mph11.3 kmh 30.10 in1019.3 mb 0.00 in0.0 mm 0.00 in0.0 mm 0.00 in0.0 mm
11:14 AM 83.5°F28.6°C 63.5°F17.5°C 51% 2.8 mph WSW4.5 kmh WSW 7.0 mph11.3 kmh 30.10 in1019.3 mb 0.00 in0.0 mm 0.00 in0.0 mm 0.00 in0.0 mm
11:19 AM 83.7°F28.7°C 62.6°F17.0°C 49% 1.4 mph NNE2.3 kmh NNE 7.0 mph11.3 kmh 30.09 in1019.0 mb 0.00 in0.0 mm 0.00 in0.0 mm 0.00 in0.0 mm
11:24 AM 84.3°F29.1°C 62.5°F16.9°C 48% 1.7 mph N2.7 kmh N 7.0 mph11.3 kmh 30.09 in1019.0 mb 0.00 in0.0 mm 0.00 in0.0 mm 0.00 in0.0 mm
11:29 AM 84.2°F29.0°C 61.9°F16.6°C 47% 2.0 mph NE3.2 kmh NE 7.0 mph11.3 kmh 30.09 in1019.0 mb 0.00 in0.0 mm 0.00 in0.0 mm 0.00 in0.0 mm
11:34 AM 84.5°F29.2°C 61.5°F16.4°C 46% 2.1 mph W3.4 kmh W 6.0 mph9.7 kmh 30.09 in1019.0 mb 0.00 in0.0 mm 0.00 in0.0 mm 0.00 in0.0 mm
11:39 AM 84.2°F29.0°C 60.6°F15.9°C 45% 1.9 mph NE3.1 kmh NE 5.0 mph8.0 kmh 30.09 in1019.0 mb 0.00 in0.0 mm 0.00 in0.0 mm 0.00 in0.0 mm
11:44 AM 84.4°F29.1°C 58.8°F14.9°C 42% 3.2 mph NE5.1 kmh NE 6.0 mph9.7 kmh 30.08 in1018.6 mb 0.00 in0.0 mm 0.00 in0.0 mm 0.00 in0.0 mm
11:49 AM 83.8°F28.8°C 57.6°F14.2°C 41% 1.5 mph NW2.4 kmh NW 8.0 mph12.9 kmh 30.08 in1018.6 mb 0.00 in0.0 mm 0.00 in0.0 mm 0.00 in0.0 mm
11:54 AM 84.2°F29.0°C 58.6°F14.8°C 42% 2.2 mph WNW3.5 kmh WNW 8.0 mph12.9 kmh 30.08 in1018.6 mb 0.00 in0.0 mm 0.00 in0.0 mm 0.00 in0.0 mm
11:59 AM 84.9°F29.4°C 58.5°F14.7°C 41% 2.8 mph NE4.5 kmh NE 8.0 mph12.9 kmh 30.08 in1018.6 mb 0.00 in0.0 mm 0.00 in0.0 mm 0.00 in0.0 mm
12:04 PM 84.6°F29.2°C 59.6°F15.3°C 43% 2.8 mph W4.5 kmh W 8.0 mph12.9 kmh 30.08 in1018.6 mb 0.00 in0.0 mm 0.00 in0.0 mm 0.00 in0.0 mm
12:09 PM 84.7°F29.3°C 59.7°F15.4°C 43% 4.6 mph WNW7.4 kmh WNW 7.0 mph11.3 kmh 30.08 in1018.6 mb 0.00 in0.0 mm 0.00 in0.0 mm 0.00 in0.0 mm
12:14 PM 85.2°F29.6°C 60.2°F15.7°C 43% 2.1 mph SW3.4 kmh SW 7.0 mph11.3 kmh 30.07 in1018.3 mb 0.00 in0.0 mm 0.00 in0.0 mm 0.00 in0.0 mm
12:19 PM 85.7°F29.8°C 60.6°F15.9°C 43% 1.8 mph W2.9 kmh W 7.0 mph11.3 kmh 30.07 in1018.3 mb 0.00 in0.0 mm 0.00 in0.0 mm 0.00 in0.0 mm
12:24 PM 86.0°F30.0°C 60.2°F15.7°C 42% 3.3 mph SW5.3 kmh SW 7.0 mph11.3 kmh 30.07 in1018.3 mb 0.00 in0.0 mm 0.00 in0.0 mm 0.00 in0.0 mm
12:29 PM 85.6°F29.8°C 61.2°F16.2°C 44% 1.9 mph SW3.1 kmh SW 6.0 mph9.7 kmh 30.07 in1018.3 mb 0.00 in0.0 mm 0.00 in0.0 mm 0.00 in0.0 mm
12:34 PM 86.0°F30.0°C 61.6°F16.4°C 44% 1.4 mph WSW2.3 kmh WSW 6.0 mph9.7 kmh 30.06 in1017.9 mb 0.00 in0.0 mm 0.00 in0.0 mm 0.00 in0.0 mm
12:39 PM 86.8°F30.4°C 61.0°F16.1°C 42% 1.0 mph WSW1.6 kmh WSW 6.0 mph9.7 kmh 30.06 in1017.9 mb 0.00 in0.0 mm 0.00 in0.0 mm 0.00 in0.0 mm
12:44 PM 87.2°F30.7°C 60.6°F15.9°C 41% 1.4 mph SE2.3 kmh SE 6.0 mph9.7 kmh 30.06 in1017.9 mb 0.00 in0.0 mm 0.00 in0.0 mm 0.00 in0.0 mm
12:49 PM 86.7°F30.4°C 61.5°F16.4°C 43% 3.1 mph WNW5.0 kmh WNW 7.0 mph11.3 kmh 30.06 in1017.9 mb 0.00 in0.0 mm 0.00 in0.0 mm 0.00 in0.0 mm
12:54 PM 86.3°F30.2°C 60.5°F15.8°C 42% 3.0 mph NNE4.8 kmh NNE 7.0 mph11.3 kmh 30.05 in1017.6 mb 0.00 in0.0 mm 0.00 in0.0 mm 0.00 in0.0 mm
12:59 PM 86.5°F30.3°C 60.7°F15.9°C 42% 2.5 mph W4.0 kmh W 7.0 mph11.3 kmh 30.05 in1017.6 mb 0.00 in0.0 mm 0.00 in0.0 mm 0.00 in0.0 mm
01:04 PM 86.9°F30.5°C 60.3°F15.7°C 41% 2.0 mph SW3.2 kmh SW 7.0 mph11.3 kmh 30.05 in1017.6 mb 0.00 in0.0 mm 0.00 in0.0 mm 0.00 in0.0 mm
01:09 PM 87.1°F30.6°C 60.5°F15.8°C 41% 4.1 mph NNE6.6 kmh NNE 9.0 mph14.5 kmh 30.04 in1017.3 mb 0.00 in0.0 mm 0.00 in0.0 mm 0.00 in0.0 mm
01:14 PM 86.7°F30.4°C 60.2°F15.7°C 41% 3.2 mph NE5.1 kmh NE 9.0 mph14.5 kmh 30.04 in1017.3 mb 0.00 in0.0 mm 0.00 in0.0 mm 0.00 in0.0 mm
01:19 PM 86.4°F30.2°C 60.6°F15.9°C 42% 2.8 mph NNE4.5 kmh NNE 9.0 mph14.5 kmh 30.04 in1017.3 mb 0.00 in0.0 mm 0.00 in0.0 mm 0.00 in0.0 mm
01:24 PM 86.7°F30.4°C 60.2°F15.7°C 41% 3.0 mph WNW4.8 kmh WNW 9.0 mph14.5 kmh 30.03 in1016.9 mb 0.00 in0.0 mm 0.00 in0.0 mm 0.00 in0.0 mm
01:29 PM 86.2°F30.1°C 59.7°F15.4°C 41% 2.2 mph NW3.5 kmh NW 8.0 mph12.9 kmh 30.03 in1016.9 mb 0.00 in0.0 mm 0.00 in0.0 mm 0.00 in0.0 mm
01:34 PM 86.4°F30.2°C 59.2°F15.1°C 40% Calm Calm 8.0 mph12.9 kmh 30.03 in1016.9 mb 0.00 in0.0 mm 0.00 in0.0 mm 0.00 in0.0 mm
01:39 PM 87.0°F30.6°C 59.7°F15.4°C 40% 2.7 mph NW4.3 kmh NW 7.0 mph11.3 kmh 30.02 in1016.6 mb 0.00 in0.0 mm 0.00 in0.0 mm 0.00 in0.0 mm
01:44 PM 86.7°F30.4°C 59.5°F15.3°C 40% 1.7 mph NW2.7 kmh NW 7.0 mph11.3 kmh 30.02 in1016.6 mb 0.00 in0.0 mm 0.00 in0.0 mm 0.00 in0.0 mm
01:49 PM 86.9°F30.5°C 58.9°F14.9°C 39% 3.4 mph SW5.5 kmh SW 8.0 mph12.9 kmh 30.02 in1016.6 mb 0.00 in0.0 mm 0.00 in0.0 mm 0.00 in0.0 mm
01:54 PM 87.3°F30.7°C 59.3°F15.2°C 39% 2.1 mph SW3.4 kmh SW 8.0 mph12.9 kmh 30.01 in1016.3 mb 0.00 in0.0 mm 0.00 in0.0 mm 0.00 in0.0 mm
01:59 PM 87.9°F31.1°C 59.8°F15.4°C 39% 1.4 mph WNW2.3 kmh WNW 8.0 mph12.9 kmh 30.01 in1016.3 mb 0.00 in0.0 mm 0.00 in0.0 mm 0.00 in0.0 mm
02:04 PM 88.1°F31.2°C 57.7°F14.3°C 36% 3.1 mph N5.0 kmh N 7.0 mph11.3 kmh 30.01 in1016.3 mb 0.00 in0.0 mm 0.00 in0.0 mm 0.00 in0.0 mm
02:09 PM 88.1°F31.2°C 58.6°F14.8°C 37% 2.3 mph N3.7 kmh N 7.0 mph11.3 kmh 30.01 in1016.3 mb 0.00 in0.0 mm 0.00 in0.0 mm 0.00 in0.0 mm
02:14 PM 88.3°F31.3°C 57.1°F13.9°C 35% 2.5 mph N4.0 kmh N 7.0 mph11.3 kmh 30.01 in1016.3 mb 0.00 in0.0 mm 0.00 in0.0 mm 0.00 in0.0 mm
02:19 PM 87.5°F30.8°C 57.9°F14.4°C 37% 1.6 mph WNW2.6 kmh WNW 7.0 mph11.3 kmh 30.01 in1016.3 mb 0.00 in0.0 mm 0.00 in0.0 mm 0.00 in0.0 mm
02:24 PM 87.4°F30.8°C 57.9°F14.4°C 37% 4.2 mph W6.8 kmh W 8.0 mph12.9 kmh 30.01 in1016.3 mb 0.00 in0.0 mm 0.00 in0.0 mm 0.00 in0.0 mm
02:29 PM 87.6°F30.9°C 58.0°F14.4°C 37% 2.7 mph WNW4.3 kmh WNW 8.0 mph12.9 kmh 30.00 in1015.9 mb 0.00 in0.0 mm 0.00 in0.0 mm 0.00 in0.0 mm
02:34 PM 88.0°F31.1°C 58.4°F14.7°C 37% 2.9 mph N4.7 kmh N 8.0 mph12.9 kmh 30.00 in1015.9 mb 0.00 in0.0 mm 0.00 in0.0 mm 0.00 in0.0 mm
02:38 PM 88.8°F31.6°C 58.4°F14.7°C 36% 1.6 mph NW2.6 kmh NW 8.0 mph12.9 kmh 30.00 in1015.9 mb 0.00 in0.0 mm 0.00 in0.0 mm 0.00 in0.0 mm
02:43 PM 89.2°F31.8°C 57.9°F14.4°C 35% 1.0 mph N1.6 kmh N 6.0 mph9.7 kmh 30.00 in1015.9 mb 0.00 in0.0 mm 0.00 in0.0 mm 0.00 in0.0 mm
02:48 PM 89.2°F31.8°C 58.7°F14.8°C 36% 2.4 mph NNE3.9 kmh NNE 6.0 mph9.7 kmh 30.00 in1015.9 mb 0.00 in0.0 mm 0.00 in0.0 mm 0.00 in0.0 mm
02:53 PM 89.2°F31.8°C 57.9°F14.4°C 35% 2.5 mph NNE4.0 kmh NNE 6.0 mph9.7 kmh 30.00 in1015.9 mb 0.00 in0.0 mm 0.00 in0.0 mm 0.00 in0.0 mm
02:58 PM 89.1°F31.7°C 57.9°F14.4°C 35% 2.7 mph SW4.3 kmh SW 6.0 mph9.7 kmh 30.00 in1015.9 mb 0.00 in0.0 mm 0.00 in0.0 mm 0.00 in0.0 mm
03:03 PM 89.5°F31.9°C 57.4°F14.1°C 34% 3.5 mph W5.6 kmh W 7.0 mph11.3 kmh 29.99 in1015.6 mb 0.00 in0.0 mm 0.00 in0.0 mm 0.00 in0.0 mm
03:08 PM 89.5°F31.9°C 57.4°F14.1°C 34% 3.2 mph WNW5.1 kmh WNW 9.0 mph14.5 kmh 29.99 in1015.6 mb 0.00 in0.0 mm 0.00 in0.0 mm 0.00 in0.0 mm
03:13 PM 89.0°F31.7°C 56.9°F13.8°C 34% 2.9 mph WNW4.7 kmh WNW 9.0 mph14.5 kmh 29.99 in1015.6 mb 0.00 in0.0 mm 0.00 in0.0 mm 0.00 in0.0 mm
03:18 PM 88.7°F31.5°C 56.6°F13.7°C 34% 1.0 mph N1.6 kmh N 9.0 mph14.5 kmh 29.99 in1015.6 mb 0.00 in0.0 mm 0.00 in0.0 mm 0.00 in0.0 mm
03:23 PM 89.0°F31.7°C 57.7°F14.3°C 35% 3.4 mph WSW5.5 kmh WSW 9.0 mph14.5 kmh 29.99 in1015.6 mb 0.00 in0.0 mm 0.00 in0.0 mm 0.00 in0.0 mm
03:28 PM 88.9°F31.6°C 56.8°F13.8°C 34% 3.5 mph WSW5.6 kmh WSW 8.0 mph12.9 kmh 29.99 in1015.6 mb 0.00 in0.0 mm 0.00 in0.0 mm 0.00 in0.0 mm
03:33 PM 88.8°F31.6°C 57.5°F14.2°C 35% 4.8 mph SW7.7 kmh SW 14.0 mph22.5 kmh 29.99 in1015.6 mb 0.00 in0.0 mm 0.00 in0.0 mm 0.00 in0.0 mm
03:38 PM 89.0°F31.7°C 57.7°F14.3°C 35% 2.5 mph SW4.0 kmh SW 14.0 mph22.5 kmh 29.99 in1015.6 mb 0.00 in0.0 mm 0.00 in0.0 mm 0.00 in0.0 mm
03:43 PM 89.2°F31.8°C 57.9°F14.4°C 35% 1.6 mph SSE2.6 kmh SSE 14.0 mph22.5 kmh 29.98 in1015.2 mb 0.00 in0.0 mm 0.00 in0.0 mm 0.00 in0.0 mm
03:48 PM 89.4°F31.9°C 58.1°F14.5°C 35% 4.1 mph WSW6.6 kmh WSW 14.0 mph22.5 kmh 29.98 in1015.2 mb 0.00 in0.0 mm 0.00 in0.0 mm 0.00 in0.0 mm
03:53 PM 89.3°F31.8°C 58.0°F14.4°C 35% 2.7 mph WNW4.3 kmh WNW 8.0 mph12.9 kmh 29.98 in1015.2 mb 0.00 in0.0 mm 0.00 in0.0 mm 0.00 in0.0 mm
03:58 PM 89.5°F31.9°C 57.3°F14.1°C 34% 1.6 mph WNW2.6 kmh WNW 8.0 mph12.9 kmh 29.98 in1015.2 mb 0.00 in0.0 mm 0.00 in0.0 mm 0.00 in0.0 mm
04:03 PM 89.4°F31.9°C 58.1°F14.5°C 35% 2.2 mph 3.5 kmh 8.0 mph12.9 kmh 29.98 in1015.2 mb 0.00 in0.0 mm 0.00 in0.0 mm 0.00 in0.0 mm
04:08 PM 89.8°F32.1°C 57.6°F14.2°C 34% 1.8 mph N2.9 kmh N 8.0 mph12.9 kmh 29.98 in1015.2 mb 0.00 in0.0 mm 0.00 in0.0 mm 0.00 in0.0 mm
04:13 PM 89.5°F31.9°C 57.3°F14.1°C 34% 4.1 mph NW6.6 kmh NW 7.0 mph11.3 kmh 29.98 in1015.2 mb 0.00 in0.0 mm 0.00 in0.0 mm 0.00 in0.0 mm
04:18 PM 89.3°F31.8°C 58.0°F14.4°C 35% 3.5 mph NE5.6 kmh NE 7.0 mph11.3 kmh 29.97 in1014.9 mb 0.00 in0.0 mm 0.00 in0.0 mm 0.00 in0.0 mm
04:23 PM 88.6°F31.4°C 59.0°F15.0°C 37% 1.9 mph NE3.1 kmh NE 9.0 mph14.5 kmh 29.97 in1014.9 mb 0.00 in0.0 mm 0.00 in0.0 mm 0.00 in0.0 mm
04:28 PM 88.7°F31.5°C 58.2°F14.6°C 36% 2.6 mph WNW4.2 kmh WNW 9.0 mph14.5 kmh 29.97 in1014.9 mb 0.00 in0.0 mm 0.00 in0.0 mm 0.00 in0.0 mm
04:33 PM 88.8°F31.6°C 59.1°F15.1°C 37% 1.7 mph WSW2.7 kmh WSW 9.0 mph14.5 kmh 29.97 in1014.9 mb 0.00 in0.0 mm 0.00 in0.0 mm 0.00 in0.0 mm
04:38 PM 89.2°F31.8°C 59.5°F15.3°C 37% 1.0 mph NW1.6 kmh NW 9.0 mph14.5 kmh 29.97 in1014.9 mb 0.00 in0.0 mm 0.00 in0.0 mm 0.00 in0.0 mm
04:43 PM 89.6°F32.0°C 59.1°F15.1°C 36% 3.5 mph W5.6 kmh W 8.0 mph12.9 kmh 29.97 in1014.9 mb 0.00 in0.0 mm 0.00 in0.0 mm 0.00 in0.0 mm
04:48 PM 89.3°F31.8°C 58.8°F14.9°C 36% 2.7 mph W4.3 kmh W 8.0 mph12.9 kmh 29.97 in1014.9 mb 0.00 in0.0 mm 0.00 in0.0 mm 0.00 in0.0 mm
04:53 PM 89.5°F31.9°C 58.9°F14.9°C 36% 2.4 mph WNW3.9 kmh WNW 8.0 mph12.9 kmh 29.97 in1014.9 mb 0.00 in0.0 mm 0.00 in0.0 mm 0.00 in0.0 mm
04:58 PM 89.4°F31.9°C 58.1°F14.5°C 35% 1.8 mph W2.9 kmh W 8.0 mph12.9 kmh 29.97 in1014.9 mb 0.00 in0.0 mm 0.00 in0.0 mm 0.00 in0.0 mm
05:03 PM 89.3°F31.8°C 58.0°F14.4°C 35% 2.2 mph NNW3.5 kmh NNW 6.0 mph9.7 kmh 29.97 in1014.9 mb 0.00 in0.0 mm 0.00 in0.0 mm 0.00 in0.0 mm
05:08 PM 89.4°F31.9°C 58.9°F14.9°C 36% 2.1 mph WNW3.4 kmh WNW 5.0 mph8.0 kmh 29.97 in1014.9 mb 0.00 in0.0 mm 0.00 in0.0 mm 0.00 in0.0 mm
05:13 PM 89.2°F31.8°C 58.8°F14.9°C 36% 1.4 mph N2.3 kmh N 6.0 mph9.7 kmh 29.97 in1014.9 mb 0.00 in0.0 mm 0.00 in0.0 mm 0.00 in0.0 mm
05:18 PM 89.4°F31.9°C 58.9°F14.9°C 36% Calm Calm 6.0 mph9.7 kmh 29.97 in1014.9 mb 0.00 in0.0 mm 0.00 in0.0 mm 0.00 in0.0 mm
05:23 PM 89.2°F31.8°C 57.9°F14.4°C 35% 2.0 mph W3.2 kmh W 6.0 mph9.7 kmh 29.97 in1014.9 mb 0.00 in0.0 mm 0.00 in0.0 mm 0.00 in0.0 mm
05:28 PM 89.3°F31.8°C 58.8°F14.9°C 36% 1.5 mph NW2.4 kmh NW 6.0 mph9.7 kmh 29.97 in1014.9 mb 0.00 in0.0 mm 0.00 in0.0 mm 0.00 in0.0 mm
05:33 PM 89.4°F31.9°C 58.1°F14.5°C 35% 1.8 mph W2.9 kmh W 4.0 mph6.4 kmh 29.97 in1014.9 mb 0.00 in0.0 mm 0.00 in0.0 mm 0.00 in0.0 mm
05:38 PM 89.3°F31.8°C 58.8°F14.9°C 36% 1.9 mph WNW3.1 kmh WNW 4.0 mph6.4 kmh 29.97 in1014.9 mb 0.00 in0.0 mm 0.00 in0.0 mm 0.00 in0.0 mm
05:43 PM 89.1°F31.7°C 58.6°F14.8°C 36% 1.1 mph W1.8 kmh W 4.0 mph6.4 kmh 29.97 in1014.9 mb 0.00 in0.0 mm 0.00 in0.0 mm 0.00 in0.0 mm
05:48 PM 88.9°F31.6°C 58.4°F14.7°C 36% 1.5 mph NW2.4 kmh NW 4.0 mph6.4 kmh 29.97 in1014.9 mb 0.00 in0.0 mm 0.00 in0.0 mm 0.00 in0.0 mm
05:53 PM 89.1°F31.7°C 58.6°F14.8°C 36% 1.3 mph W2.1 kmh W 4.0 mph6.4 kmh 29.97 in1014.9 mb 0.00 in0.0 mm 0.00 in0.0 mm 0.00 in0.0 mm
05:58 PM 88.9°F31.6°C 58.5°F14.7°C 36% 1.2 mph WNW1.9 kmh WNW 4.0 mph6.4 kmh 29.97 in1014.9 mb 0.00 in0.0 mm 0.00 in0.0 mm 0.00 in0.0 mm
06:03 PM 88.5°F31.4°C 58.8°F14.9°C 37% 1.0 mph NW1.6 kmh NW 4.0 mph6.4 kmh 29.97 in1014.9 mb 0.00 in0.0 mm 0.00 in0.0 mm 0.00 in0.0 mm
06:08 PM 88.0°F31.1°C 58.4°F14.7°C 37% 2.0 mph NW3.2 kmh NW 4.0 mph6.4 kmh 29.97 in1014.9 mb 0.00 in0.0 mm 0.00 in0.0 mm 0.00 in0.0 mm
06:13 PM 87.7°F30.9°C 58.9°F14.9°C 38% Calm Calm 4.0 mph6.4 kmh 29.97 in1014.9 mb 0.00 in0.0 mm 0.00 in0.0 mm 0.00 in0.0 mm
06:18 PM 87.2°F30.7°C 58.4°F14.7°C 38% 1.5 mph WNW2.4 kmh WNW 4.0 mph6.4 kmh 29.97 in1014.9 mb 0.00 in0.0 mm 0.00 in0.0 mm 0.00 in0.0 mm
06:23 PM 86.7°F30.4°C 58.7°F14.8°C 39% 1.6 mph W2.6 kmh W 4.0 mph6.4 kmh 29.97 in1014.9 mb 0.00 in0.0 mm 0.00 in0.0 mm 0.00 in0.0 mm
06:28 PM 86.4°F30.2°C 58.5°F14.7°C 39% 1.5 mph W2.4 kmh W 3.0 mph4.8 kmh 29.97 in1014.9 mb 0.00 in0.0 mm 0.00 in0.0 mm 0.00 in0.0 mm
06:33 PM 86.0°F30.0°C 58.9°F14.9°C 40% 1.4 mph WNW2.3 kmh WNW 3.0 mph4.8 kmh 29.97 in1014.9 mb 0.00 in0.0 mm 0.00 in0.0 mm 0.00 in0.0 mm
06:38 PM 85.6°F29.8°C 58.5°F14.7°C 40% 1.0 mph W1.6 kmh W 3.0 mph4.8 kmh 29.97 in1014.9 mb 0.00 in0.0 mm 0.00 in0.0 mm 0.00 in0.0 mm
06:43 PM 85.4°F29.7°C 58.3°F14.6°C 40% 1.5 mph W2.4 kmh W 3.0 mph4.8 kmh 29.97 in1014.9 mb 0.00 in0.0 mm 0.00 in0.0 mm 0.00 in0.0 mm
06:48 PM 85.1°F29.5°C 58.7°F14.8°C 41% 1.2 mph WNW1.9 kmh WNW 2.0 mph3.2 kmh 29.97 in1014.9 mb 0.00 in0.0 mm 0.00 in0.0 mm 0.00 in0.0 mm
06:53 PM 84.9°F29.4°C 58.5°F14.7°C 41% 1.0 mph WNW1.6 kmh WNW 2.0 mph3.2 kmh 29.97 in1014.9 mb 0.00 in0.0 mm 0.00 in0.0 mm 0.00 in0.0 mm
06:58 PM 84.7°F29.3°C 58.4°F14.7°C 41% 1.0 mph WNW1.6 kmh WNW 2.0 mph3.2 kmh 29.97 in1014.9 mb 0.00 in0.0 mm 0.00 in0.0 mm 0.00 in0.0 mm
07:03 PM 84.5°F29.2°C 58.2°F14.6°C 41% 1.0 mph WNW1.6 kmh WNW 2.0 mph3.2 kmh 29.97 in1014.9 mb 0.00 in0.0 mm 0.00 in0.0 mm 0.00 in0.0 mm
07:08 PM 84.5°F29.2°C 58.2°F14.6°C 41% Calm Calm 2.0 mph3.2 kmh 29.97 in1014.9 mb 0.00 in0.0 mm 0.00 in0.0 mm 0.00 in0.0 mm
07:13 PM 84.2°F29.0°C 57.9°F14.4°C 41% Calm Calm 2.0 mph3.2 kmh 29.97 in1014.9 mb 0.00 in0.0 mm 0.00 in0.0 mm 0.00 in0.0 mm
07:18 PM 84.2°F29.0°C 57.9°F14.4°C 41% 1.0 mph WNW1.6 kmh WNW 2.0 mph3.2 kmh 29.97 in1014.9 mb 0.00 in0.0 mm 0.00 in0.0 mm 0.00 in0.0 mm
07:23 PM 84.2°F29.0°C 57.9°F14.4°C 41% 1.0 mph WNW1.6 kmh WNW 1.0 mph1.6 kmh 29.96 in1014.6 mb 0.00 in0.0 mm 0.00 in0.0 mm 0.00 in0.0 mm
07:29 PM 84.1°F28.9°C 57.8°F14.3°C 41% 1.0 mph WNW1.6 kmh WNW 1.0 mph1.6 kmh 29.96 in1014.6 mb 0.00 in0.0 mm 0.00 in0.0 mm 0.00 in0.0 mm
07:33 PM 84.0°F28.9°C 57.7°F14.3°C 41% 1.0 mph WNW1.6 kmh WNW 1.0 mph1.6 kmh 29.96 in1014.6 mb 0.00 in0.0 mm 0.00 in0.0 mm 0.00 in0.0 mm
07:37 PM 84.0°F28.9°C 58.4°F14.7°C 42% 1.0 mph WNW1.6 kmh WNW 1.0 mph1.6 kmh 29.96 in1014.6 mb 0.00 in0.0 mm 0.00 in0.0 mm 0.00 in0.0 mm
07:42 PM 83.8°F28.8°C 58.2°F14.6°C 42% 1.0 mph WNW1.6 kmh WNW 1.0 mph1.6 kmh 29.96 in1014.6 mb 0.00 in0.0 mm 0.00 in0.0 mm 0.00 in0.0 mm
07:48 PM 83.7°F28.7°C 58.2°F14.6°C 42% Calm Calm 1.0 mph1.6 kmh 29.97 in1014.9 mb 0.00 in0.0 mm 0.00 in0.0 mm 0.00 in0.0 mm
07:52 PM 83.6°F28.7°C 58.1°F14.5°C 42% 1.0 mph WNW1.6 kmh WNW 1.0 mph1.6 kmh 29.96 in1014.6 mb 0.00 in0.0 mm 0.00 in0.0 mm 0.00 in0.0 mm
07:58 PM 83.6°F28.7°C 58.1°F14.5°C 42% 1.0 mph WNW1.6 kmh WNW 1.0 mph1.6 kmh 29.97 in1014.9 mb 0.00 in0.0 mm 0.00 in0.0 mm 0.00 in0.0 mm
08:03 PM 83.5°F28.6°C 58.0°F14.4°C 42% Calm Calm 1.0 mph1.6 kmh 29.97 in1014.9 mb 0.00 in0.0 mm 0.00 in0.0 mm 0.00 in0.0 mm
08:08 PM 83.1°F28.4°C 58.3°F14.6°C 43% 1.0 mph WSW1.6 kmh WSW 1.0 mph1.6 kmh 29.96 in1014.6 mb 0.00 in0.0 mm 0.00 in0.0 mm 0.00 in0.0 mm
08:12 PM 82.3°F27.9°C 58.2°F14.6°C 44% 1.0 mph WSW1.6 kmh WSW 1.0 mph1.6 kmh 29.96 in1014.6 mb 0.00 in0.0 mm 0.00 in0.0 mm 0.00 in0.0 mm
08:18 PM 81.9°F27.7°C 57.8°F14.3°C 44% 1.2 mph WSW1.9 kmh WSW 2.0 mph3.2 kmh 29.97 in1014.9 mb 0.00 in0.0 mm 0.00 in0.0 mm 0.00 in0.0 mm
08:23 PM 81.4°F27.4°C 58.0°F14.4°C 45% 1.3 mph WSW2.1 kmh WSW 2.0 mph3.2 kmh 29.97 in1014.9 mb 0.00 in0.0 mm 0.00 in0.0 mm 0.00 in0.0 mm
08:28 PM 81.0°F27.2°C 58.3°F14.6°C 46% 1.2 mph WSW1.9 kmh WSW 3.0 mph4.8 kmh 29.97 in1014.9 mb 0.00 in0.0 mm 0.00 in0.0 mm 0.00 in0.0 mm
08:33 PM 80.9°F27.2°C 58.2°F14.6°C 46% 1.2 mph WSW1.9 kmh WSW 3.0 mph4.8 kmh 29.97 in1014.9 mb 0.00 in0.0 mm 0.00 in0.0 mm 0.00 in0.0 mm
08:38 PM 81.0°F27.2°C 57.7°F14.3°C 45% 1.1 mph SW1.8 kmh SW 3.0 mph4.8 kmh 29.97 in1014.9 mb 0.00 in0.0 mm 0.00 in0.0 mm 0.00 in0.0 mm
08:43 PM 81.1°F27.3°C 57.7°F14.3°C 45% 1.0 mph WSW1.6 kmh WSW 2.0 mph3.2 kmh 29.97 in1014.9 mb 0.00 in0.0 mm 0.00 in0.0 mm 0.00 in0.0 mm
08:48 PM 81.3°F27.4°C 57.9°F14.4°C 45% 1.0 mph WSW1.6 kmh WSW 2.0 mph3.2 kmh 29.97 in1014.9 mb 0.00 in0.0 mm 0.00 in0.0 mm 0.00 in0.0 mm
08:53 PM 81.1°F27.3°C 57.8°F14.3°C 45% 1.1 mph WSW1.8 kmh WSW 2.0 mph3.2 kmh 29.97 in1014.9 mb 0.00 in0.0 mm 0.00 in0.0 mm 0.00 in0.0 mm
08:58 PM 80.8°F27.1°C 58.1°F14.5°C 46% 1.6 mph WSW2.6 kmh WSW 3.0 mph4.8 kmh 29.97 in1014.9 mb 0.00 in0.0 mm 0.00 in0.0 mm 0.00 in0.0 mm
09:03 PM 80.6°F27.0°C 57.9°F14.4°C 46% 1.8 mph SW2.9 kmh SW 3.0 mph4.8 kmh 29.97 in1014.9 mb 0.00 in0.0 mm 0.00 in0.0 mm 0.00 in0.0 mm
09:08 PM 80.5°F26.9°C 57.9°F14.4°C 46% 1.8 mph WSW2.9 kmh WSW 4.0 mph6.4 kmh 29.97 in1014.9 mb 0.00 in0.0 mm 0.00 in0.0 mm 0.00 in0.0 mm
09:13 PM 80.4°F26.9°C 58.4°F14.7°C 47% 1.6 mph WSW2.6 kmh WSW 4.0 mph6.4 kmh 29.98 in1015.2 mb 0.00 in0.0 mm 0.00 in0.0 mm 0.00 in0.0 mm
09:18 PM 80.2°F26.8°C 58.2°F14.6°C 47% 1.3 mph WSW2.1 kmh WSW 4.0 mph6.4 kmh 29.97 in1014.9 mb 0.00 in0.0 mm 0.00 in0.0 mm 0.00 in0.0 mm
09:23 PM 80.3°F26.8°C 58.3°F14.6°C 47% 1.3 mph WSW2.1 kmh WSW 4.0 mph6.4 kmh 29.97 in1014.9 mb 0.00 in0.0 mm 0.00 in0.0 mm 0.00 in0.0 mm
09:28 PM 80.4°F26.9°C 58.4°F14.7°C 47% 1.3 mph WSW2.1 kmh WSW 4.0 mph6.4 kmh 29.97 in1014.9 mb 0.00 in0.0 mm 0.00 in0.0 mm 0.00 in0.0 mm
09:33 PM 80.3°F26.8°C 58.3°F14.6°C 47% 1.1 mph WSW1.8 kmh WSW 3.0 mph4.8 kmh 29.97 in1014.9 mb 0.00 in0.0 mm 0.00 in0.0 mm 0.00 in0.0 mm
09:38 PM 80.2°F26.8°C 58.1°F14.5°C 47% 1.4 mph WSW2.3 kmh WSW 3.0 mph4.8 kmh 29.97 in1014.9 mb 0.00 in0.0 mm 0.00 in0.0 mm 0.00 in0.0 mm
09:43 PM 80.0°F26.7°C 58.6°F14.8°C 48% 1.4 mph WSW2.3 kmh WSW 3.0 mph4.8 kmh 29.97 in1014.9 mb 0.00 in0.0 mm 0.00 in0.0 mm 0.00 in0.0 mm
09:48 PM 79.6°F26.4°C 58.9°F14.9°C 49% 2.1 mph SW3.4 kmh SW 4.0 mph6.4 kmh 29.97 in1014.9 mb 0.00 in0.0 mm 0.00 in0.0 mm 0.00 in0.0 mm
09:53 PM 79.3°F26.3°C 58.6°F14.8°C 49% 2.1 mph WSW3.4 kmh WSW 4.0 mph6.4 kmh 29.97 in1014.9 mb 0.00 in0.0 mm 0.00 in0.0 mm 0.00 in0.0 mm
09:58 PM 79.0°F26.1°C 58.9°F14.9°C 50% 1.5 mph WSW2.4 kmh WSW 4.0 mph6.4 kmh 29.97 in1014.9 mb 0.00 in0.0 mm 0.00 in0.0 mm 0.00 in0.0 mm
10:03 PM 78.7°F25.9°C 59.2°F15.1°C 51% 1.5 mph SW2.4 kmh SW 4.0 mph6.4 kmh 29.97 in1014.9 mb 0.00 in0.0 mm 0.00 in0.0 mm 0.00 in0.0 mm
10:08 PM 78.5°F25.8°C 59.0°F15.0°C 51% 1.1 mph SW1.8 kmh SW 4.0 mph6.4 kmh 29.97 in1014.9 mb 0.00 in0.0 mm 0.00 in0.0 mm 0.00 in0.0 mm
10:13 PM 78.2°F25.7°C 59.3°F15.2°C 52% 1.4 mph WSW2.3 kmh WSW 3.0 mph4.8 kmh 29.97 in1014.9 mb 0.00 in0.0 mm 0.00 in0.0 mm 0.00 in0.0 mm
10:18 PM 78.1°F25.6°C 59.2°F15.1°C 52% 1.4 mph WSW2.3 kmh WSW 4.0 mph6.4 kmh 29.97 in1014.9 mb 0.00 in0.0 mm 0.00 in0.0 mm 0.00 in0.0 mm
10:23 PM 77.9°F25.5°C 59.4°F15.2°C 53% 1.1 mph SW1.8 kmh SW 4.0 mph6.4 kmh 29.97 in1014.9 mb 0.00 in0.0 mm 0.00 in0.0 mm 0.00 in0.0 mm
10:28 PM 77.7°F25.4°C 59.4°F15.2°C 53% 1.6 mph SW2.6 kmh SW 4.0 mph6.4 kmh 29.97 in1014.9 mb 0.00 in0.0 mm 0.00 in0.0 mm 0.00 in0.0 mm
10:33 PM 77.6°F25.3°C 59.1°F15.1°C 53% 1.8 mph WSW2.9 kmh WSW 4.0 mph6.4 kmh 29.96 in1014.6 mb 0.00 in0.0 mm 0.00 in0.0 mm 0.00 in0.0 mm
10:38 PM 77.5°F25.3°C 59.7°F15.4°C 54% 1.2 mph WSW1.9 kmh WSW 4.0 mph6.4 kmh 29.97 in1014.9 mb 0.00 in0.0 mm 0.00 in0.0 mm 0.00 in0.0 mm
10:43 PM 77.3°F25.2°C 59.4°F15.2°C 54% 1.1 mph WSW1.8 kmh WSW 4.0 mph6.4 kmh 29.96 in1014.6 mb 0.00 in0.0 mm 0.00 in0.0 mm 0.00 in0.0 mm
10:48 PM 77.1°F25.1°C 59.9°F15.5°C 55% 1.3 mph WSW2.1 kmh WSW 4.0 mph6.4 kmh 29.96 in1014.6 mb 0.00 in0.0 mm 0.00 in0.0 mm 0.00 in0.0 mm
10:53 PM 77.0°F25.0°C 59.8°F15.4°C 55% 1.2 mph WSW1.9 kmh WSW 3.0 mph4.8 kmh 29.96 in1014.6 mb 0.00 in0.0 mm 0.00 in0.0 mm 0.00 in0.0 mm
10:58 PM 77.0°F25.0°C 59.8°F15.4°C 55% 1.5 mph WSW2.4 kmh WSW 3.0 mph4.8 kmh 29.96 in1014.6 mb 0.00 in0.0 mm 0.00 in0.0 mm 0.00 in0.0 mm
11:03 PM 77.1°F25.1°C 59.7°F15.4°C 55% 1.5 mph WSW2.4 kmh WSW 4.0 mph6.4 kmh 29.96 in1014.6 mb 0.00 in0.0 mm 0.00 in0.0 mm 0.00 in0.0 mm
11:08 PM 77.0°F25.0°C 59.8°F15.4°C 55% 1.2 mph WSW1.9 kmh WSW 4.0 mph6.4 kmh 29.96 in1014.6 mb 0.00 in0.0 mm 0.00 in0.0 mm 0.00 in0.0 mm
11:13 PM 77.0°F25.0°C 59.8°F15.4°C 55% 1.7 mph WSW2.7 kmh WSW 4.0 mph6.4 kmh 29.96 in1014.6 mb 0.00 in0.0 mm 0.00 in0.0 mm 0.00 in0.0 mm
11:18 PM 76.9°F24.9°C 59.5°F15.3°C 55% 1.6 mph WSW2.6 kmh WSW 4.0 mph6.4 kmh 29.96 in1014.6 mb 0.00 in0.0 mm 0.00 in0.0 mm 0.00 in0.0 mm
11:23 PM 76.8°F24.9°C 59.6°F15.3°C 55% 1.2 mph WSW1.9 kmh WSW 4.0 mph6.4 kmh 29.95 in1014.2 mb 0.00 in0.0 mm 0.00 in0.0 mm 0.00 in0.0 mm
11:28 PM 76.7°F24.8°C 60.0°F15.6°C 56% 1.9 mph WSW3.1 kmh WSW 4.0 mph6.4 kmh 29.95 in1014.2 mb 0.00 in0.0 mm 0.00 in0.0 mm 0.00 in0.0 mm
11:33 PM 76.8°F24.9°C 60.1°F15.6°C 56% 2.0 mph WSW3.2 kmh WSW 6.0 mph9.7 kmh 29.95 in1014.2 mb 0.00 in0.0 mm 0.00 in0.0 mm 0.00 in0.0 mm
11:38 PM 76.6°F24.8°C 59.9°F15.5°C 56% 2.6 mph WSW4.2 kmh WSW 6.0 mph9.7 kmh 29.95 in1014.2 mb 0.00 in0.0 mm 0.00 in0.0 mm 0.00 in0.0 mm
11:43 PM 76.3°F24.6°C 60.1°F15.6°C 57% 1.1 mph WSW1.8 kmh WSW 6.0 mph9.7 kmh 29.95 in1014.2 mb 0.00 in0.0 mm 0.00 in0.0 mm 0.00 in0.0 mm
11:48 PM 76.0°F24.4°C 59.9°F15.5°C 57% 1.7 mph SW2.7 kmh SW 6.0 mph9.7 kmh 29.95 in1014.2 mb 0.00 in0.0 mm 0.00 in0.0 mm 0.00 in0.0 mm
11:53 PM 75.9°F24.4°C 59.6°F15.3°C 57% 1.0 mph WSW1.6 kmh WSW 6.0 mph9.7 kmh 29.95 in1014.2 mb 0.00 in0.0 mm 0.00 in0.0 mm 0.00 in0.0 mm
11:58 PM 76.0°F24.4°C 59.9°F15.5°C 57% 1.8 mph WSW2.9 kmh WSW 6.0 mph9.7 kmh 29.95 in1014.2 mb 0.00 in0.0 mm 0.00 in0.0 mm 0.00 in0.0 mm